createdAt,value
2023-02-19T00:01:31.194Z,48918.44
2023-02-19T00:04:19.859Z,48914.50
2023-02-19T00:06:47.338Z,48910.59
2023-02-19T00:09:16.201Z,48906.69
2023-02-19T00:11:43.242Z,48906.69
2023-02-19T00:14:14.333Z,48906.69
2023-02-19T00:16:41.155Z,48908.63
2023-02-19T00:19:12.042Z,48887.09
2023-02-19T00:21:38.633Z,48863.56
2023-02-19T00:24:07.481Z,48859.66
2023-02-19T00:26:34.712Z,48855.75
2023-02-19T00:29:01.817Z,48849.88
2023-02-19T00:31:32.832Z,48847.91
2023-02-19T00:34:02.581Z,48847.91
2023-02-19T00:36:30.392Z,48847.91
2023-02-19T00:38:57.269Z,48847.91
2023-02-19T00:41:26.849Z,48844.00
2023-02-19T00:43:59.347Z,48844.00
2023-02-19T00:46:27.539Z,48844.00
2023-02-19T00:48:54.940Z,48844.00
2023-02-19T00:51:23.489Z,48844.00
2023-02-19T00:53:50.172Z,48844.00
2023-02-19T00:56:17.306Z,48840.06
2023-02-19T00:58:43.982Z,48840.06
2023-02-19T01:01:11.889Z,48840.06
2023-02-19T01:03:39.363Z,48842.03
2023-02-19T01:06:07.888Z,48847.91
2023-02-19T01:08:34.962Z,48845.94
2023-02-19T01:11:02.290Z,48844.00
2023-02-19T01:13:28.947Z,48840.06
2023-02-19T01:16:24.779Z,48844.00
2023-02-19T01:18:51.654Z,48842.03
2023-02-19T01:21:24.483Z,48844.00
2023-02-19T01:23:52.204Z,48838.09
2023-02-19T01:26:22.138Z,48842.03
2023-02-19T01:28:49.006Z,48842.03
2023-02-19T01:31:21.629Z,48844.00
2023-02-19T01:33:50.826Z,48842.03
2023-02-19T01:36:17.829Z,48842.03
2023-02-19T01:38:44.860Z,48840.06
2023-02-19T01:41:17.293Z,48844.00
2023-02-19T01:44:02.636Z,48840.06
2023-02-19T01:46:37.558Z,48844.00
2023-02-19T01:49:18.660Z,48845.94
2023-02-19T01:51:48.664Z,48842.03
2023-02-19T01:54:18.497Z,48842.03
2023-02-19T01:56:46.888Z,48840.06
2023-02-19T01:59:14.043Z,48842.03
2023-02-19T02:01:41.631Z,48842.03
2023-02-19T02:04:10.988Z,48840.06
2023-02-19T02:06:49.204Z,48842.03
2023-02-19T02:09:37.384Z,48842.03
2023-02-19T02:12:03.990Z,48842.03
2023-02-19T02:14:36.526Z,48836.16
2023-02-19T02:17:05.973Z,48840.06
2023-02-19T02:20:01.673Z,48844.00
2023-02-19T02:22:35.670Z,48840.06
2023-02-19T02:25:44.920Z,48842.03
2023-02-19T02:28:27.455Z,48842.03
2023-02-19T02:31:04.440Z,48844.00
2023-02-19T02:33:44.428Z,48844.00
2023-02-19T02:36:18.020Z,48840.06
2023-02-19T02:38:47.248Z,48844.00
2023-02-19T02:41:15.570Z,48845.94
2023-02-19T02:43:42.451Z,48844.00
2023-02-19T02:46:15.547Z,48844.00
2023-02-19T02:48:49.445Z,48840.06
2023-02-19T02:51:19.781Z,48844.00
2023-02-19T02:54:19.965Z,48840.06
2023-02-19T02:56:48.407Z,48842.03
2023-02-19T02:59:20.013Z,48840.06
2023-02-19T03:02:10.588Z,48842.03
2023-02-19T03:05:24.153Z,48840.06
2023-02-19T03:07:50.684Z,48840.06
2023-02-19T03:10:20.666Z,48840.06
2023-02-19T03:13:11.993Z,48840.06
2023-02-19T03:16:20.338Z,48840.06
2023-02-19T03:19:10.490Z,48840.06
2023-02-19T03:21:39.913Z,48834.19
2023-02-19T03:24:27.900Z,48844.00
2023-02-19T03:26:56.623Z,48844.00
2023-02-19T03:29:26.434Z,48840.06
2023-02-19T03:31:57.644Z,48836.16
2023-02-19T03:34:31.730Z,48836.16
2023-02-19T03:37:06.710Z,48840.06
2023-02-19T03:39:33.241Z,48836.16
2023-02-19T03:42:06.211Z,48840.06
2023-02-19T03:44:40.668Z,48842.03
2023-02-19T03:47:20.099Z,48840.06
2023-02-19T03:50:06.483Z,48840.06
2023-02-19T03:52:50.204Z,48840.06
2023-02-19T03:55:28.234Z,48834.19
2023-02-19T03:58:44.300Z,48840.06
2023-02-19T04:01:19.762Z,48840.06
2023-02-19T04:03:53.869Z,48836.16
2023-02-19T04:06:26.065Z,48840.06
2023-02-19T04:08:57.541Z,48840.06
2023-02-19T04:11:26.125Z,48836.16
2023-02-19T04:14:00.663Z,48838.09
2023-02-19T04:16:29.368Z,48840.06
2023-02-19T04:19:11.180Z,48838.09
2023-02-19T04:21:40.161Z,48840.06
2023-02-19T04:24:12.138Z,48840.06
2023-02-19T04:26:39.811Z,48840.06
2023-02-19T04:29:06.297Z,48836.16
2023-02-19T04:31:35.688Z,48836.16
2023-02-19T04:34:04.139Z,48838.09
2023-02-19T04:36:32.187Z,48834.19
2023-02-19T04:38:58.606Z,48836.16
2023-02-19T04:41:25.076Z,48836.16
2023-02-19T04:43:51.557Z,48842.03
2023-02-19T04:46:17.974Z,48836.16
2023-02-19T04:48:44.867Z,48838.09
2023-02-19T04:51:11.796Z,48840.06
2023-02-19T04:53:38.390Z,48838.09
2023-02-19T04:56:09.927Z,48844.00
2023-02-19T04:58:36.529Z,48840.06
2023-02-19T05:01:03.430Z,48836.16
2023-02-19T05:03:31.366Z,48838.09
2023-02-19T05:05:57.811Z,48840.06
2023-02-19T05:08:24.241Z,48840.06
2023-02-19T05:10:50.713Z,48844.00
2023-02-19T05:13:17.606Z,48842.03
2023-02-19T05:16:19.909Z,48844.00
2023-02-19T05:18:47.340Z,48840.06
2023-02-19T05:21:14.545Z,48844.00
2023-02-19T05:23:41.663Z,48838.09
2023-02-19T05:26:12.264Z,48836.16
2023-02-19T05:28:38.937Z,48836.16
2023-02-19T05:31:08.558Z,48840.06
2023-02-19T05:33:35.668Z,48844.00
2023-02-19T05:36:06.973Z,48836.16
2023-02-19T05:38:33.894Z,48840.06
2023-02-19T05:41:18.666Z,48840.06
2023-02-19T05:43:47.052Z,48840.06
2023-02-19T05:46:15.713Z,48838.09
2023-02-19T05:48:42.713Z,48840.06
2023-02-19T05:51:17.868Z,48838.09
2023-02-19T05:53:45.644Z,48836.16
2023-02-19T05:56:39.416Z,48840.06
2023-02-19T05:59:15.606Z,48840.06
2023-02-19T06:01:42.405Z,48844.00
2023-02-19T06:04:10.776Z,48840.06
2023-02-19T06:06:37.926Z,48842.03
2023-02-19T06:09:05.836Z,48844.00
2023-02-19T06:11:33.241Z,48840.06
2023-02-19T06:13:59.674Z,48840.06
2023-02-19T06:16:26.514Z,48844.00
2023-02-19T06:18:53.315Z,48842.03
2023-02-19T06:21:20.315Z,48842.03
2023-02-19T06:23:46.784Z,48847.91
2023-02-19T06:26:22.212Z,48847.91
2023-02-19T06:28:50.416Z,48844.00
2023-02-19T06:31:18.495Z,48847.91
2023-02-19T06:33:45.890Z,48847.91
2023-02-19T06:36:17.705Z,48845.94
2023-02-19T06:38:44.673Z,48847.91
2023-02-19T06:41:12.560Z,48849.88
2023-02-19T06:43:39.644Z,48847.91
2023-02-19T06:46:07.952Z,48847.91
2023-02-19T06:48:34.724Z,48849.88
2023-02-19T06:51:01.476Z,48855.75
2023-02-19T06:53:27.860Z,48861.63
2023-02-19T06:56:20.634Z,48863.56
2023-02-19T06:58:46.992Z,48867.50
2023-02-19T07:01:13.680Z,48873.38
2023-02-19T07:03:40.288Z,48871.41
2023-02-19T07:06:07.202Z,48887.09
2023-02-19T07:08:33.618Z,48883.16
2023-02-19T07:11:00.036Z,48879.25
2023-02-19T07:13:27.213Z,48883.16
2023-02-19T07:16:01.151Z,48871.41
2023-02-19T07:18:28.252Z,48875.34
2023-02-19T07:20:54.694Z,48887.09
2023-02-19T07:23:21.776Z,48892.97
2023-02-19T07:25:48.329Z,48867.50
2023-02-19T07:28:14.749Z,48871.41
2023-02-19T07:30:41.267Z,48889.03
2023-02-19T07:33:10.394Z,48906.69
2023-02-19T07:35:37.016Z,48916.47
2023-02-19T07:38:03.452Z,48902.75
2023-02-19T07:40:30.222Z,48894.91
2023-02-19T07:42:59.263Z,48894.91
2023-02-19T07:45:25.732Z,48904.72
2023-02-19T07:47:52.116Z,48902.75
2023-02-19T07:50:18.683Z,48918.44
2023-02-19T07:52:45.060Z,48914.50
2023-02-19T07:55:11.717Z,48912.56
2023-02-19T07:57:38.280Z,48910.59
2023-02-19T08:00:05.033Z,48914.50
2023-02-19T08:02:50.151Z,48918.44
2023-02-19T08:05:16.632Z,48918.44
2023-02-19T08:07:43.116Z,48922.34
2023-02-19T08:10:29.171Z,48914.50
2023-02-19T08:13:18.586Z,48930.19
2023-02-19T08:16:07.506Z,48928.22
2023-02-19T08:18:41.206Z,48930.19
2023-02-19T08:21:07.727Z,48934.09
2023-02-19T08:23:34.225Z,48939.97
2023-02-19T08:26:02.197Z,48938.03
2023-02-19T08:28:29.737Z,48941.94
2023-02-19T08:31:02.708Z,48943.91
2023-02-19T08:33:30.360Z,48953.69
2023-02-19T08:35:57.469Z,48957.59
2023-02-19T08:38:23.844Z,48965.44
2023-02-19T08:40:50.280Z,48965.44
2023-02-19T08:43:19.058Z,48955.66
2023-02-19T08:45:47.465Z,48959.56
2023-02-19T08:48:14.527Z,48965.44
2023-02-19T08:50:41.109Z,48977.19
2023-02-19T08:53:07.756Z,48992.88
2023-02-19T08:55:34.347Z,48983.06
2023-02-19T08:58:01.111Z,48985.03
2023-02-19T09:00:27.832Z,48996.78
2023-02-19T09:02:54.241Z,48985.03
2023-02-19T09:05:21.012Z,48985.03
2023-02-19T09:07:47.427Z,48990.91
2023-02-19T09:10:14.277Z,48990.91
2023-02-19T09:12:41.540Z,48992.88
2023-02-19T09:15:08.451Z,48992.88
2023-02-19T09:17:35.764Z,49008.53
2023-02-19T09:20:02.157Z,49004.63
2023-02-19T09:22:28.669Z,49008.53
2023-02-19T09:24:55.069Z,49014.41
2023-02-19T09:27:22.021Z,49014.41
2023-02-19T09:29:48.502Z,49024.22
2023-02-19T09:32:15.741Z,49008.53
2023-02-19T09:34:42.587Z,49024.22
2023-02-19T09:37:09.400Z,49028.13
2023-02-19T09:39:36.093Z,49032.06
2023-02-19T09:42:27.286Z,49039.88
2023-02-19T09:44:55.869Z,49035.97
2023-02-19T09:47:31.564Z,49051.66
2023-02-19T09:50:06.954Z,49049.69
2023-02-19T09:52:52.028Z,49037.94
2023-02-19T09:55:32.552Z,49039.88
2023-02-19T09:58:02.460Z,49053.59
2023-02-19T10:00:36.034Z,49049.69
2023-02-19T10:03:11.100Z,49047.72
2023-02-19T10:05:39.781Z,49051.66
2023-02-19T10:08:12.928Z,49057.53
2023-02-19T10:10:41.459Z,49057.53
2023-02-19T10:13:31.360Z,49073.19
2023-02-19T10:16:00.656Z,49083.00
2023-02-19T10:18:35.350Z,49079.06
2023-02-19T10:21:02.377Z,49096.72
2023-02-19T10:23:29.119Z,49090.81
2023-02-19T10:25:58.217Z,49090.81
2023-02-19T10:28:29.009Z,49092.78
2023-02-19T10:30:58.522Z,49122.19
2023-02-19T10:33:25.691Z,49077.13
2023-02-19T10:35:59.305Z,49094.75
2023-02-19T10:38:38.956Z,49094.75
2023-02-19T10:41:17.747Z,49106.50
2023-02-19T10:43:52.836Z,49092.78
2023-02-19T10:46:23.190Z,49086.91
2023-02-19T10:49:17.069Z,49116.28
2023-02-19T10:51:43.958Z,49110.41
2023-02-19T10:54:20.395Z,49084.94
2023-02-19T10:56:47.220Z,49112.38
2023-02-19T10:59:28.042Z,49130.00
2023-02-19T11:01:55.916Z,49110.41
2023-02-19T11:04:22.424Z,49102.59
2023-02-19T11:06:49.229Z,49083.00
2023-02-19T11:09:29.949Z,49083.00
2023-02-19T11:11:57.686Z,49090.81
2023-02-19T11:14:25.940Z,49090.81
2023-02-19T11:16:57.757Z,49086.91
2023-02-19T11:19:27.240Z,49130.00
2023-02-19T11:21:54.703Z,49120.22
2023-02-19T11:24:37.624Z,49130.00
2023-02-19T11:27:07.052Z,49122.19
2023-02-19T11:29:35.514Z,49133.94
2023-02-19T11:32:20.514Z,49110.41
2023-02-19T11:34:49.102Z,49133.94
2023-02-19T11:37:18.111Z,49137.84
2023-02-19T11:39:50.820Z,49128.06
2023-02-19T11:42:29.665Z,49169.19
2023-02-19T11:45:26.651Z,49149.59
2023-02-19T11:48:19.184Z,49157.44
2023-02-19T11:50:53.621Z,49131.97
2023-02-19T11:53:26.907Z,49145.69
2023-02-19T11:56:14.054Z,49116.28
2023-02-19T11:59:02.701Z,49118.25
2023-02-19T12:01:51.115Z,49149.59
2023-02-19T12:04:37.833Z,49130.00
2023-02-19T12:07:21.213Z,49165.28
2023-02-19T12:10:09.181Z,49133.94
2023-02-19T12:13:02.055Z,49137.84
2023-02-19T12:15:50.630Z,49118.25
2023-02-19T12:18:35.818Z,49130.00
2023-02-19T12:21:25.410Z,49102.59
2023-02-19T12:24:20.420Z,49131.97
2023-02-19T12:26:59.022Z,49122.19
2023-02-19T12:29:43.867Z,49100.63
2023-02-19T12:32:31.633Z,49157.44
2023-02-19T12:35:28.882Z,49145.69
2023-02-19T12:38:19.923Z,49133.94
2023-02-19T12:40:54.186Z,49079.06
2023-02-19T12:43:23.135Z,49114.34
2023-02-19T12:45:53.384Z,49122.19
2023-02-19T12:48:36.086Z,49086.91
2023-02-19T12:51:12.138Z,49083.00
2023-02-19T12:53:48.590Z,49090.81
2023-02-19T12:56:20.946Z,49094.75
2023-02-19T12:59:14.522Z,49133.94
2023-02-19T13:01:50.983Z,49169.19
2023-02-19T13:04:26.352Z,49153.53
2023-02-19T13:07:13.907Z,49153.53
2023-02-19T13:09:51.159Z,49137.84
2023-02-19T13:12:26.237Z,49135.88
2023-02-19T13:14:59.901Z,49145.69
2023-02-19T13:17:55.420Z,49135.88
2023-02-19T13:20:41.188Z,49139.81
2023-02-19T13:23:50.911Z,49163.31
2023-02-19T13:26:30.072Z,49165.28
2023-02-19T13:29:02.408Z,49153.53
2023-02-19T13:31:47.699Z,49149.59
2023-02-19T13:34:41.717Z,49141.75
2023-02-19T13:37:09.684Z,49110.41
2023-02-19T13:39:36.217Z,49145.69
2023-02-19T13:42:02.809Z,49147.66
2023-02-19T13:44:32.294Z,49149.59
2023-02-19T13:47:00.470Z,49161.34
2023-02-19T13:49:33.900Z,49122.19
2023-02-19T13:52:02.520Z,49122.19
2023-02-19T13:54:40.017Z,49104.53
2023-02-19T13:57:22.263Z,49130.00
2023-02-19T13:59:49.899Z,49098.66
2023-02-19T14:02:35.280Z,49051.66
2023-02-19T14:05:10.071Z,49063.41
2023-02-19T14:07:50.932Z,49012.47
2023-02-19T14:10:45.967Z,49020.31
2023-02-19T14:13:12.414Z,49006.59
2023-02-19T14:15:49.894Z,49028.13
2023-02-19T14:18:42.421Z,49035.97
2023-02-19T14:21:22.355Z,49041.84
2023-02-19T14:24:14.389Z,49008.53
2023-02-19T14:26:41.935Z,49014.41
2023-02-19T14:29:12.420Z,48992.88
2023-02-19T14:31:40.427Z,48990.91
2023-02-19T14:34:22.293Z,49004.63
2023-02-19T14:36:53.888Z,48977.19
2023-02-19T14:39:31.606Z,48983.06
2023-02-19T14:42:02.205Z,49014.41
2023-02-19T14:44:41.192Z,49010.50
2023-02-19T14:47:14.554Z,49016.38
2023-02-19T14:49:49.791Z,48996.78
2023-02-19T14:52:23.786Z,49004.63
2023-02-19T14:54:56.601Z,48996.78
2023-02-19T14:57:30.403Z,48983.06
2023-02-19T15:00:03.329Z,48992.88
2023-02-19T15:02:32.030Z,48981.13
2023-02-19T15:04:58.846Z,48965.44
2023-02-19T15:07:30.128Z,48981.13
2023-02-19T15:10:05.404Z,49030.09
2023-02-19T15:12:50.253Z,48996.78
2023-02-19T15:15:21.885Z,49000.72
2023-02-19T15:17:50.707Z,48977.19
2023-02-19T15:20:22.538Z,48985.03
2023-02-19T15:22:49.828Z,48996.78
2023-02-19T15:25:22.315Z,49035.97
2023-02-19T15:27:49.186Z,49137.84
2023-02-19T15:30:30.671Z,49157.44
2023-02-19T15:32:59.666Z,49149.59
2023-02-19T15:35:28.091Z,49137.84
2023-02-19T15:37:55.373Z,49141.75
2023-02-19T15:40:29.286Z,49118.25
2023-02-19T15:42:56.359Z,49102.59
2023-02-19T15:45:44.783Z,49098.66
2023-02-19T15:48:18.316Z,49094.75
2023-02-19T15:50:50.191Z,49098.66
2023-02-19T15:53:25.359Z,49083.00
2023-02-19T15:56:15.114Z,49086.91
2023-02-19T15:58:48.796Z,49059.47
2023-02-19T16:01:35.329Z,49079.06
2023-02-19T16:04:02.665Z,49059.47
2023-02-19T16:06:29.350Z,49045.78
2023-02-19T16:09:02.136Z,49075.16
2023-02-19T16:11:50.430Z,49077.13
2023-02-19T16:14:22.703Z,49053.59
2023-02-19T16:16:53.611Z,49090.81
2023-02-19T16:19:29.434Z,49063.41
2023-02-19T16:21:56.368Z,49077.13
2023-02-19T16:24:36.847Z,49063.41
2023-02-19T16:27:04.795Z,49075.16
2023-02-19T16:29:33.111Z,49079.06
2023-02-19T16:32:02.838Z,49067.31
2023-02-19T16:34:43.324Z,49063.41
2023-02-19T16:37:32.394Z,49094.75
2023-02-19T16:40:07.623Z,49075.16
2023-02-19T16:42:49.347Z,49096.72
2023-02-19T16:45:16.815Z,49098.66
2023-02-19T16:47:51.274Z,49110.41
2023-02-19T16:50:24.188Z,49088.88
2023-02-19T16:52:54.827Z,49079.06
2023-02-19T16:55:21.486Z,49088.88
2023-02-19T16:57:48.323Z,49098.66
2023-02-19T17:00:24.139Z,49086.91
2023-02-19T17:02:55.520Z,49104.53
2023-02-19T17:05:23.565Z,49073.19
2023-02-19T17:07:50.503Z,49094.75
2023-02-19T17:10:23.405Z,49079.06
2023-02-19T17:12:50.911Z,49096.72
2023-02-19T17:15:17.990Z,49075.16
2023-02-19T17:17:44.982Z,49106.50
2023-02-19T17:20:22.845Z,49090.81
2023-02-19T17:22:49.588Z,49090.81
2023-02-19T17:25:16.112Z,49106.50
2023-02-19T17:27:42.517Z,49079.06
2023-02-19T17:30:24.910Z,49086.91
2023-02-19T17:32:51.376Z,49118.25
2023-02-19T17:35:17.857Z,49079.06
2023-02-19T17:37:44.351Z,49086.91
2023-02-19T17:40:33.429Z,49098.66
2023-02-19T17:43:00.627Z,49063.41
2023-02-19T17:45:27.133Z,49079.06
2023-02-19T17:47:53.616Z,49098.66
2023-02-19T17:50:22.854Z,49071.25
2023-02-19T17:52:49.380Z,49077.13
2023-02-19T17:55:18.458Z,49069.28
2023-02-19T17:57:46.107Z,49083.00
2023-02-19T18:00:15.461Z,49055.56
2023-02-19T18:02:42.449Z,49071.25
2023-02-19T18:05:09.088Z,49094.75
2023-02-19T18:07:36.152Z,49094.75
2023-02-19T18:10:03.864Z,49090.81
2023-02-19T18:12:30.388Z,49047.72
2023-02-19T18:14:57.325Z,49083.00
2023-02-19T18:17:24.930Z,49061.44
2023-02-19T18:19:52.365Z,49079.06
2023-02-19T18:22:19.336Z,49059.47
2023-02-19T18:24:47.676Z,49047.72
2023-02-19T18:27:14.737Z,49039.88
2023-02-19T18:29:41.400Z,49057.53
2023-02-19T18:32:08.342Z,49043.81
2023-02-19T18:34:34.951Z,49043.81
2023-02-19T18:37:01.509Z,49055.56
2023-02-19T18:39:28.017Z,49055.56
2023-02-19T18:41:54.526Z,49043.81
2023-02-19T18:44:23.704Z,49047.72
2023-02-19T18:46:50.750Z,49035.97
2023-02-19T18:49:18.147Z,49051.66
2023-02-19T18:51:45.586Z,49028.13
2023-02-19T18:54:12.345Z,49032.06
2023-02-19T18:56:46.495Z,49022.25
2023-02-19T18:59:13.735Z,49034.00
2023-02-19T19:01:40.281Z,49020.31
2023-02-19T19:04:07.489Z,49012.47
2023-02-19T19:06:35.854Z,49024.22
2023-02-19T19:09:03.469Z,49014.41
2023-02-19T19:11:30.307Z,49024.22
2023-02-19T19:13:57.026Z,49032.06
2023-02-19T19:16:28.700Z,49020.31
2023-02-19T19:18:56.357Z,49018.34
2023-02-19T19:21:23.186Z,49037.94
2023-02-19T19:23:50.285Z,49028.13
2023-02-19T19:26:17.713Z,49032.06
2023-02-19T19:28:44.603Z,49032.06
2023-02-19T19:31:15.933Z,49032.06
2023-02-19T19:33:43.534Z,49016.38
2023-02-19T19:36:11.226Z,49014.41
2023-02-19T19:38:38.003Z,49043.81
2023-02-19T19:41:05.602Z,49008.53
2023-02-19T19:43:33.461Z,49039.88
2023-02-19T19:46:00.783Z,49035.97
2023-02-19T19:48:30.114Z,49041.84
2023-02-19T19:50:59.682Z,49055.56
2023-02-19T19:53:26.341Z,49028.13
2023-02-19T19:55:53.137Z,49020.31
2023-02-19T19:58:24.503Z,49039.88
2023-02-19T20:00:51.919Z,49018.34
2023-02-19T20:03:19.317Z,49028.13
2023-02-19T20:05:48.256Z,49020.31
2023-02-19T20:08:14.775Z,49016.38
2023-02-19T20:10:41.941Z,49020.31
2023-02-19T20:13:09.269Z,49008.53
2023-02-19T20:15:36.135Z,49004.63
2023-02-19T20:18:02.893Z,49004.63
2023-02-19T20:20:29.772Z,48996.78
2023-02-19T20:22:56.406Z,48981.13
2023-02-19T20:25:23.465Z,48951.72
2023-02-19T20:27:51.351Z,48934.09
2023-02-19T20:30:20.588Z,48943.91
2023-02-19T20:32:48.306Z,48934.09
2023-02-19T20:35:16.153Z,48939.97
2023-02-19T20:37:44.290Z,48945.84
2023-02-19T20:40:11.959Z,48941.94
2023-02-19T20:42:38.874Z,48943.91
2023-02-19T20:45:05.931Z,48938.03
2023-02-19T20:47:32.441Z,48945.84
2023-02-19T20:49:59.076Z,48941.94
2023-02-19T20:52:25.616Z,48961.53
2023-02-19T20:54:56.408Z,48949.78
2023-02-19T20:57:23.968Z,48951.72
2023-02-19T20:59:50.460Z,48949.78
2023-02-19T21:02:20.955Z,48961.53
2023-02-19T21:04:48.386Z,48945.84
2023-02-19T21:07:15.375Z,48955.66
2023-02-19T21:09:41.839Z,48961.53
2023-02-19T21:12:08.347Z,48957.59
2023-02-19T21:14:34.808Z,48957.59
2023-02-19T21:17:01.284Z,48941.94
2023-02-19T21:19:27.942Z,48943.91
2023-02-19T21:21:54.461Z,48941.94
2023-02-19T21:24:20.967Z,48943.91
2023-02-19T21:26:47.608Z,48934.09
2023-02-19T21:29:16.964Z,48930.19
2023-02-19T21:31:45.953Z,48922.34
2023-02-19T21:34:14.917Z,48910.59
2023-02-19T21:36:41.862Z,48910.59
2023-02-19T21:39:09.366Z,48906.69
2023-02-19T21:41:35.857Z,48902.75
2023-02-19T21:44:03.297Z,48902.75
2023-02-19T21:46:29.770Z,48902.75
2023-02-19T21:48:57.040Z,48918.44
2023-02-19T21:51:30.568Z,48922.34
2023-02-19T21:53:57.271Z,48945.84
2023-02-19T21:56:25.772Z,48934.09
2023-02-19T21:58:52.344Z,48936.06
2023-02-19T22:01:23.416Z,48938.03
2023-02-19T22:03:50.101Z,48941.94
2023-02-19T22:06:17.476Z,48961.53
2023-02-19T22:08:44.479Z,48973.28
2023-02-19T22:11:10.994Z,48969.38
2023-02-19T22:13:37.380Z,48983.06
2023-02-19T22:16:03.885Z,48992.88
2023-02-19T22:18:30.413Z,48992.88
2023-02-19T22:20:56.899Z,49004.63
2023-02-19T22:23:23.448Z,48990.91
2023-02-19T22:25:50.080Z,48988.94
2023-02-19T22:28:16.487Z,49004.63
2023-02-19T22:30:43.097Z,49012.47
2023-02-19T22:33:09.945Z,49004.63
2023-02-19T22:35:36.475Z,49008.53
2023-02-19T22:38:03.201Z,49026.19
2023-02-19T22:40:29.572Z,49002.66
2023-02-19T22:42:55.994Z,49008.53
2023-02-19T22:45:23.196Z,49012.47
2023-02-19T22:47:49.820Z,49008.53
2023-02-19T22:50:19.466Z,49008.53
2023-02-19T22:52:45.927Z,48988.94
2023-02-19T22:55:12.398Z,48985.03
2023-02-19T22:57:38.830Z,48996.78
2023-02-19T23:00:06.858Z,48992.88
2023-02-19T23:02:33.368Z,49008.53
2023-02-19T23:04:59.752Z,48988.94
2023-02-19T23:07:26.152Z,48996.78
2023-02-19T23:09:52.536Z,49004.63
2023-02-19T23:12:18.957Z,48994.84
2023-02-19T23:14:46.702Z,48988.94
2023-02-19T23:17:13.118Z,48988.94
2023-02-19T23:19:40.026Z,48981.13
2023-02-19T23:22:06.610Z,48992.88
2023-02-19T23:24:33.029Z,48996.78
2023-02-19T23:27:00.519Z,49004.63
2023-02-19T23:29:27.954Z,48996.78
2023-02-19T23:31:55.068Z,48992.88
2023-02-19T23:34:21.521Z,48992.88
2023-02-19T23:36:50.533Z,48994.84
2023-02-19T23:39:19.075Z,49004.63
2023-02-19T23:41:47.473Z,48992.88
2023-02-19T23:44:13.960Z,48996.78
2023-02-19T23:46:40.381Z,49002.66
2023-02-19T23:49:07.195Z,48979.16
2023-02-19T23:51:33.701Z,48988.94
2023-02-19T23:54:00.121Z,48985.03
2023-02-19T23:56:28.641Z,48996.78
2023-02-19T23:58:55.334Z,48973.28
